createdAt,value
2023-05-19T00:00:28.628Z,12.30
2023-05-19T00:02:56.208Z,12.40
2023-05-19T00:05:24.832Z,12.50
2023-05-19T00:07:53.464Z,12.40
2023-05-19T00:10:20.601Z,12.40
2023-05-19T00:12:47.790Z,12.40
2023-05-19T00:15:15.088Z,12.30
2023-05-19T00:17:42.440Z,12.20
2023-05-19T00:20:09.569Z,12.20
2023-05-19T00:22:36.948Z,12.10
2023-05-19T00:25:04.032Z,12.10
2023-05-19T00:27:30.734Z,12.10
2023-05-19T00:29:57.419Z,12.10
2023-05-19T00:32:24.065Z,12.00
2023-05-19T00:34:50.741Z,12.00
2023-05-19T00:37:17.380Z,12.00
2023-05-19T00:39:44.070Z,11.80
2023-05-19T00:42:10.749Z,11.80
2023-05-19T00:44:41.402Z,11.50
2023-05-19T00:47:08.808Z,11.60
2023-05-19T00:49:36.080Z,11.60
2023-05-19T00:52:03.199Z,11.50
2023-05-19T00:54:29.879Z,11.40
2023-05-19T00:56:58.282Z,11.50
2023-05-19T00:59:25.008Z,11.60
2023-05-19T01:01:52.194Z,11.50
2023-05-19T01:04:21.676Z,11.50
2023-05-19T01:06:58.330Z,11.40
2023-05-19T01:09:25.091Z,11.30
2023-05-19T01:11:52.326Z,11.40
2023-05-19T01:14:20.439Z,11.50
2023-05-19T01:17:34.304Z,11.30
2023-05-19T01:20:19.841Z,11.30
2023-05-19T01:23:01.560Z,11.30
2023-05-19T01:26:04.582Z,11.30
2023-05-19T01:29:09.119Z,11.20
2023-05-19T01:31:39.918Z,11.20
2023-05-19T01:34:07.175Z,11.10
2023-05-19T01:36:33.981Z,11.00
2023-05-19T01:39:02.412Z,10.90
2023-05-19T01:41:30.534Z,10.80
2023-05-19T01:43:58.231Z,10.80
2023-05-19T01:46:25.322Z,10.90
2023-05-19T01:48:52.635Z,10.80
2023-05-19T01:51:19.442Z,11.00
2023-05-19T01:53:46.182Z,10.90
2023-05-19T01:56:19.268Z,10.90
2023-05-19T01:58:48.709Z,10.80
2023-05-19T02:01:34.009Z,10.80
2023-05-19T02:04:09.967Z,10.80
2023-05-19T02:06:41.536Z,10.80
2023-05-19T02:09:13.649Z,10.80
2023-05-19T02:11:45.756Z,10.70
2023-05-19T02:14:24.835Z,10.70
2023-05-19T02:16:52.868Z,10.60
2023-05-19T02:19:26.726Z,10.50
2023-05-19T02:21:53.722Z,10.50
2023-05-19T02:24:22.623Z,10.50
2023-05-19T02:26:51.707Z,10.50
2023-05-19T02:29:18.905Z,10.50
2023-05-19T02:31:45.777Z,10.50
2023-05-19T02:34:12.556Z,10.50
2023-05-19T02:36:43.067Z,10.60
2023-05-19T02:39:10.930Z,10.50
2023-05-19T02:41:38.305Z,10.50
2023-05-19T02:44:05.212Z,10.50
2023-05-19T02:46:31.877Z,10.40
2023-05-19T02:48:58.699Z,10.30
2023-05-19T02:51:25.436Z,10.30
2023-05-19T02:53:52.106Z,10.40
2023-05-19T02:56:18.751Z,10.40
2023-05-19T02:58:45.398Z,10.30
2023-05-19T03:01:12.119Z,10.30
2023-05-19T03:03:38.872Z,10.30
2023-05-19T03:06:08.571Z,10.10
2023-05-19T03:08:36.259Z,10.20
2023-05-19T03:11:03.317Z,10.10
2023-05-19T03:13:30.042Z,10.10
2023-05-19T03:15:58.675Z,10.20
2023-05-19T03:18:26.553Z,10.20
2023-05-19T03:20:53.993Z,10.10
2023-05-19T03:23:21.900Z,10.20
2023-05-19T03:25:48.711Z,10.30
2023-05-19T03:28:15.557Z,10.30
2023-05-19T03:30:42.220Z,10.20
2023-05-19T03:33:09.088Z,10.10
2023-05-19T03:35:35.872Z,10.00
2023-05-19T03:38:02.514Z,10.00
2023-05-19T03:40:29.211Z,10.10
2023-05-19T03:42:56.635Z,10.10
2023-05-19T03:45:23.319Z,10.10
2023-05-19T03:47:50.014Z,10.10
2023-05-19T03:50:16.697Z,10.10
2023-05-19T03:52:45.402Z,10.00
2023-05-19T03:55:14.583Z,10.00
2023-05-19T03:57:41.512Z,10.00
2023-05-19T04:00:11.087Z,10.00
2023-05-19T04:02:37.912Z,10.10
2023-05-19T04:05:05.074Z,10.00
2023-05-19T04:07:31.879Z,9.90
2023-05-19T04:09:58.602Z,9.70
2023-05-19T04:12:25.253Z,9.70
2023-05-19T04:14:51.949Z,9.80
2023-05-19T04:17:18.607Z,9.80
2023-05-19T04:19:45.280Z,9.80
2023-05-19T04:22:11.973Z,9.80
2023-05-19T04:24:38.599Z,9.70
2023-05-19T04:27:05.454Z,9.70
2023-05-19T04:29:32.548Z,9.70
2023-05-19T04:32:00.842Z,9.60
2023-05-19T04:34:28.593Z,9.60
2023-05-19T04:36:55.449Z,9.70
2023-05-19T04:39:22.063Z,9.60
2023-05-19T04:41:48.679Z,9.80
2023-05-19T04:44:18.032Z,9.70
2023-05-19T04:46:46.065Z,9.70
2023-05-19T04:49:12.745Z,9.80
2023-05-19T04:51:41.548Z,9.80
2023-05-19T04:54:09.935Z,9.70
2023-05-19T04:56:36.860Z,9.80
2023-05-19T04:59:03.687Z,10.00
2023-05-19T05:01:31.153Z,10.00
2023-05-19T05:03:59.137Z,10.10
2023-05-19T05:06:26.537Z,10.20
2023-05-19T05:08:53.272Z,10.20
2023-05-19T05:11:20.579Z,10.20
2023-05-19T05:13:47.594Z,10.20
2023-05-19T05:16:14.898Z,10.20
2023-05-19T05:18:44.342Z,10.20
2023-05-19T05:21:12.188Z,10.20
2023-05-19T05:23:39.171Z,10.20
2023-05-19T05:26:16.855Z,10.20
2023-05-19T05:28:43.542Z,10.10
2023-05-19T05:31:10.163Z,10.10
2023-05-19T05:33:38.387Z,10.30
2023-05-19T05:36:05.376Z,10.40
2023-05-19T05:38:32.113Z,10.70
2023-05-19T05:40:58.756Z,10.80
2023-05-19T05:43:25.391Z,10.70
2023-05-19T05:45:52.055Z,10.80
2023-05-19T05:48:19.053Z,10.80
2023-05-19T05:50:46.007Z,11.00
2023-05-19T05:53:19.321Z,10.90
2023-05-19T05:55:47.257Z,11.10
2023-05-19T05:58:14.940Z,11.40
2023-05-19T06:00:45.369Z,11.40
2023-05-19T06:03:12.343Z,11.30
2023-05-19T06:05:39.151Z,11.20
2023-05-19T06:08:06.418Z,11.40
2023-05-19T06:10:33.596Z,11.50
2023-05-19T06:13:01.296Z,11.50
2023-05-19T06:15:28.033Z,11.70
2023-05-19T06:17:54.915Z,12.10
2023-05-19T06:20:21.877Z,12.10
2023-05-19T06:22:48.564Z,12.50
2023-05-19T06:25:15.679Z,13.00
2023-05-19T06:27:42.325Z,12.80
2023-05-19T06:30:09.385Z,12.50
2023-05-19T06:32:36.080Z,12.50
2023-05-19T06:35:02.805Z,12.70
2023-05-19T06:37:29.492Z,12.80
2023-05-19T06:39:56.275Z,12.80
2023-05-19T06:42:23.992Z,12.70
2023-05-19T06:44:51.482Z,12.50
2023-05-19T06:47:18.817Z,12.50
2023-05-19T06:49:46.152Z,12.50
2023-05-19T06:52:12.798Z,12.80
2023-05-19T06:54:39.617Z,12.70
2023-05-19T06:57:06.367Z,12.90
2023-05-19T06:59:33.184Z,12.90
2023-05-19T07:01:59.893Z,12.80
2023-05-19T07:04:27.448Z,12.80
2023-05-19T07:06:54.921Z,13.00
2023-05-19T07:09:21.852Z,12.90
2023-05-19T07:11:48.674Z,13.00
2023-05-19T07:14:15.303Z,13.40
2023-05-19T07:16:42.005Z,13.20
2023-05-19T07:19:08.819Z,13.10
2023-05-19T07:21:35.718Z,13.20
2023-05-19T07:24:02.375Z,13.20
2023-05-19T07:26:29.464Z,13.30
2023-05-19T07:28:56.718Z,13.50
2023-05-19T07:31:23.457Z,13.50
2023-05-19T07:33:51.683Z,13.40
2023-05-19T07:36:20.769Z,13.50
2023-05-19T07:38:47.636Z,13.60
2023-05-19T07:41:14.304Z,14.00
2023-05-19T07:43:41.089Z,14.20
2023-05-19T07:46:07.880Z,14.20
2023-05-19T07:48:34.601Z,14.50
2023-05-19T07:51:02.097Z,14.50
2023-05-19T07:53:28.838Z,14.30
2023-05-19T07:55:57.763Z,14.40
2023-05-19T07:58:25.299Z,14.60
2023-05-19T08:00:53.137Z,14.80
2023-05-19T08:03:20.526Z,15.10
2023-05-19T08:05:47.708Z,15.00
2023-05-19T08:08:16.744Z,15.00
2023-05-19T08:10:43.840Z,14.90
2023-05-19T08:13:10.605Z,15.00
2023-05-19T08:15:37.527Z,15.20
2023-05-19T08:18:05.085Z,15.40
2023-05-19T08:20:32.395Z,15.40
2023-05-19T08:22:59.551Z,15.50
2023-05-19T08:25:26.215Z,15.50
2023-05-19T08:27:52.830Z,15.80
2023-05-19T08:30:19.564Z,15.70
2023-05-19T08:32:46.409Z,15.70
2023-05-19T08:35:13.080Z,15.80
2023-05-19T08:37:39.830Z,16.20
2023-05-19T08:40:08.779Z,16.20
2023-05-19T08:42:35.515Z,16.50
2023-05-19T08:45:02.540Z,16.50
2023-05-19T08:47:29.983Z,16.70
2023-05-19T08:50:04.844Z,16.60
2023-05-19T08:52:35.472Z,16.40
2023-05-19T08:55:27.563Z,16.50
2023-05-19T08:57:54.538Z,16.40
2023-05-19T09:00:22.449Z,16.50
2023-05-19T09:02:59.890Z,16.50
2023-05-19T09:05:33.427Z,16.50
2023-05-19T09:08:02.659Z,16.60
2023-05-19T09:10:29.449Z,16.60
2023-05-19T09:13:03.220Z,16.60
2023-05-19T09:15:31.713Z,16.70
2023-05-19T09:18:13.142Z,16.90
2023-05-19T09:20:40.693Z,16.90
2023-05-19T09:23:08.257Z,16.90
2023-05-19T09:25:35.235Z,17.10
2023-05-19T09:28:02.173Z,17.10
2023-05-19T09:30:28.910Z,17.10
2023-05-19T09:32:55.661Z,17.10
2023-05-19T09:35:22.453Z,17.20
2023-05-19T09:37:49.204Z,17.10
2023-05-19T09:40:16.169Z,17.20
2023-05-19T09:42:44.038Z,17.20
2023-05-19T09:45:11.279Z,16.90
2023-05-19T09:47:39.612Z,17.20
2023-05-19T09:50:08.800Z,17.30
2023-05-19T09:52:40.669Z,17.30
2023-05-19T09:55:11.131Z,17.20
2023-05-19T09:57:38.835Z,16.90
2023-05-19T10:00:17.305Z,17.00
2023-05-19T10:02:48.456Z,16.90
2023-05-19T10:05:17.638Z,17.00
2023-05-19T10:07:45.716Z,17.10
2023-05-19T10:10:14.057Z,17.20
2023-05-19T10:12:42.267Z,17.40
2023-05-19T10:15:14.154Z,17.50
2023-05-19T10:17:42.261Z,17.50
2023-05-19T10:20:14.131Z,17.50
2023-05-19T10:22:42.334Z,17.60
2023-05-19T10:25:10.591Z,17.60
2023-05-19T10:27:41.719Z,17.60
2023-05-19T10:30:14.418Z,17.70
2023-05-19T10:32:44.827Z,17.80
2023-05-19T10:35:32.417Z,17.70
2023-05-19T10:38:15.749Z,17.70
2023-05-19T10:41:10.213Z,17.80
2023-05-19T10:43:43.765Z,17.90
2023-05-19T10:46:10.492Z,17.70
2023-05-19T10:48:37.295Z,17.80
2023-05-19T10:51:04.695Z,18.00
2023-05-19T10:53:32.910Z,18.20
2023-05-19T10:56:06.754Z,18.20
2023-05-19T10:58:43.270Z,18.20
2023-05-19T11:01:17.318Z,18.10
2023-05-19T11:03:53.155Z,18.20
2023-05-19T11:06:33.856Z,18.30
2023-05-19T11:09:10.450Z,18.20
2023-05-19T11:11:44.659Z,18.30
2023-05-19T11:14:14.752Z,18.50
2023-05-19T11:16:45.710Z,18.70
2023-05-19T11:19:40.995Z,18.70
2023-05-19T11:22:10.045Z,18.60
2023-05-19T11:24:51.907Z,18.70
2023-05-19T11:27:24.364Z,18.80
2023-05-19T11:29:51.877Z,19.00
2023-05-19T11:32:20.503Z,19.00
2023-05-19T11:34:49.448Z,19.00
2023-05-19T11:37:16.559Z,18.90
2023-05-19T11:39:45.244Z,18.80
2023-05-19T11:42:12.155Z,18.80
2023-05-19T11:44:41.029Z,18.80
2023-05-19T11:47:08.400Z,19.00
2023-05-19T11:49:35.290Z,19.00
2023-05-19T11:52:02.540Z,19.00
2023-05-19T11:54:33.612Z,19.30
2023-05-19T11:57:02.800Z,19.50
2023-05-19T11:59:32.785Z,19.50
2023-05-19T12:02:21.600Z,19.60
2023-05-19T12:04:49.407Z,19.60
2023-05-19T12:07:19.808Z,19.60
2023-05-19T12:09:47.391Z,19.60
2023-05-19T12:12:16.881Z,19.60
2023-05-19T12:14:44.464Z,19.80
2023-05-19T12:17:15.643Z,19.80
2023-05-19T12:19:48.058Z,19.80
2023-05-19T12:22:18.998Z,20.00
2023-05-19T12:24:46.908Z,20.00
2023-05-19T12:27:22.782Z,20.10
2023-05-19T12:29:54.826Z,20.30
2023-05-19T12:32:26.053Z,20.40
2023-05-19T12:34:53.639Z,20.30
2023-05-19T12:37:20.415Z,20.60
2023-05-19T12:39:49.015Z,20.70
2023-05-19T12:42:16.493Z,20.90
2023-05-19T12:44:48.397Z,21.10
2023-05-19T12:47:16.059Z,21.10
2023-05-19T12:50:08.570Z,21.00
2023-05-19T12:52:45.493Z,21.00
2023-05-19T12:55:12.806Z,21.30
2023-05-19T12:57:42.190Z,21.40
2023-05-19T13:00:16.599Z,21.40
2023-05-19T13:03:02.739Z,21.20
2023-05-19T13:05:34.242Z,21.70
2023-05-19T13:08:04.915Z,21.50
2023-05-19T13:10:32.900Z,21.30
2023-05-19T13:13:04.552Z,21.60
2023-05-19T13:15:34.178Z,21.90
2023-05-19T13:18:03.559Z,21.70
2023-05-19T13:20:30.966Z,22.10
2023-05-19T13:22:57.843Z,21.90
2023-05-19T13:25:24.766Z,21.90
2023-05-19T13:27:51.498Z,22.10
2023-05-19T13:30:18.904Z,22.20
2023-05-19T13:32:46.264Z,22.00
2023-05-19T13:35:14.444Z,22.30
2023-05-19T13:37:43.967Z,22.50
2023-05-19T13:40:11.595Z,22.30
2023-05-19T13:42:38.408Z,22.30
2023-05-19T13:45:05.677Z,22.20
2023-05-19T13:47:32.475Z,22.30
2023-05-19T13:49:59.277Z,22.30
2023-05-19T13:52:28.212Z,22.50
2023-05-19T13:54:56.697Z,22.60
2023-05-19T13:57:26.495Z,22.60
2023-05-19T14:00:02.676Z,23.10
2023-05-19T14:02:30.903Z,23.00
2023-05-19T14:04:58.044Z,22.90
2023-05-19T14:07:25.417Z,23.10
2023-05-19T14:09:52.577Z,23.60
2023-05-19T14:12:20.186Z,23.30
2023-05-19T14:14:48.937Z,23.10
2023-05-19T14:17:15.633Z,23.00
2023-05-19T14:19:42.390Z,22.70
2023-05-19T14:22:09.146Z,23.00
2023-05-19T14:24:35.797Z,23.10
2023-05-19T14:27:02.430Z,23.10
2023-05-19T14:29:31.005Z,23.30
2023-05-19T14:31:57.775Z,23.60
2023-05-19T14:34:24.473Z,23.80
2023-05-19T14:36:52.074Z,24.30
2023-05-19T14:39:18.784Z,23.70
2023-05-19T14:41:45.678Z,23.90
2023-05-19T14:44:12.332Z,23.70
2023-05-19T14:46:39.068Z,23.80
2023-05-19T14:49:06.472Z,24.00
2023-05-19T14:51:33.144Z,24.10
2023-05-19T14:54:00.502Z,24.50
2023-05-19T14:56:27.238Z,24.30
2023-05-19T14:58:53.873Z,24.40
2023-05-19T15:01:20.588Z,24.60
2023-05-19T15:03:47.388Z,24.50
2023-05-19T15:06:14.144Z,24.00
2023-05-19T15:08:41.481Z,23.90
2023-05-19T15:11:08.250Z,23.60
2023-05-19T15:13:34.898Z,24.20
2023-05-19T15:16:16.256Z,24.40
2023-05-19T15:18:44.650Z,24.60
2023-05-19T15:21:11.353Z,24.60
2023-05-19T15:23:37.997Z,24.50
2023-05-19T15:26:04.830Z,24.00
2023-05-19T15:28:32.061Z,24.50
2023-05-19T15:30:58.831Z,24.80
2023-05-19T15:33:25.613Z,24.90
2023-05-19T15:35:52.414Z,24.80
2023-05-19T15:38:21.960Z,24.70
2023-05-19T15:40:48.605Z,24.80
2023-05-19T15:43:15.335Z,24.60
2023-05-19T15:45:42.008Z,24.90
2023-05-19T15:48:08.813Z,24.60
2023-05-19T15:50:36.378Z,24.60
2023-05-19T15:53:03.402Z,24.30
2023-05-19T15:55:30.104Z,24.70
2023-05-19T15:57:56.767Z,24.20
2023-05-19T16:00:23.616Z,24.00
2023-05-19T16:02:50.617Z,24.20
2023-05-19T16:05:17.405Z,24.40
2023-05-19T16:07:44.060Z,24.20
2023-05-19T16:10:10.938Z,24.60
2023-05-19T16:12:40.589Z,24.60
2023-05-19T16:15:07.646Z,24.60
2023-05-19T16:17:34.821Z,24.20
2023-05-19T16:20:01.582Z,24.50
2023-05-19T16:22:28.405Z,24.20
2023-05-19T16:24:55.017Z,24.10
2023-05-19T16:27:22.614Z,24.20
2023-05-19T16:29:49.276Z,24.50
2023-05-19T16:32:15.945Z,24.40
2023-05-19T16:34:42.559Z,24.50
2023-05-19T16:37:09.212Z,24.40
2023-05-19T16:39:37.124Z,24.30
2023-05-19T16:42:06.851Z,24.40
2023-05-19T16:44:33.470Z,24.40
2023-05-19T16:47:00.189Z,24.30
2023-05-19T16:49:26.893Z,24.60
2023-05-19T16:51:54.140Z,24.30
2023-05-19T16:54:21.297Z,24.00
2023-05-19T16:56:47.989Z,23.50
2023-05-19T16:59:14.726Z,23.50
2023-05-19T17:01:41.644Z,23.50
2023-05-19T17:04:08.566Z,23.60
2023-05-19T17:06:35.784Z,23.70
2023-05-19T17:09:02.469Z,23.50
2023-05-19T17:11:29.078Z,23.20
2023-05-19T17:13:55.942Z,23.20
2023-05-19T17:16:23.413Z,23.30
2023-05-19T17:18:50.285Z,23.10
2023-05-19T17:21:17.600Z,23.40
2023-05-19T17:23:44.328Z,23.30
2023-05-19T17:26:10.929Z,23.10
2023-05-19T17:28:37.648Z,23.20
2023-05-19T17:31:12.743Z,23.20
2023-05-19T17:33:39.997Z,23.50
2023-05-19T17:36:08.417Z,23.30
2023-05-19T17:38:35.582Z,23.20
2023-05-19T17:41:04.447Z,23.20
2023-05-19T17:43:31.244Z,23.10
2023-05-19T17:45:58.900Z,23.10
2023-05-19T17:48:27.615Z,22.80
2023-05-19T17:50:54.419Z,22.60
2023-05-19T17:53:21.358Z,22.40
2023-05-19T17:55:51.954Z,22.60
2023-05-19T17:58:19.307Z,22.10
2023-05-19T18:00:46.479Z,22.20
2023-05-19T18:03:13.628Z,22.30
2023-05-19T18:05:43.056Z,22.00
2023-05-19T18:08:10.562Z,21.90
2023-05-19T18:10:38.623Z,21.80
2023-05-19T18:13:06.179Z,21.80
2023-05-19T18:15:33.185Z,21.60
2023-05-19T18:18:00.582Z,21.60
2023-05-19T18:20:27.490Z,21.20
2023-05-19T18:22:54.354Z,21.30
2023-05-19T18:25:21.055Z,21.20
2023-05-19T18:27:47.786Z,21.10
2023-05-19T18:30:14.549Z,21.00
2023-05-19T18:32:41.486Z,21.00
2023-05-19T18:35:08.875Z,20.90
2023-05-19T18:37:35.742Z,20.90
2023-05-19T18:40:02.442Z,20.80
2023-05-19T18:42:29.233Z,20.60
2023-05-19T18:44:55.897Z,20.80
2023-05-19T18:47:23.001Z,20.60
2023-05-19T18:49:50.114Z,20.30
2023-05-19T18:52:16.874Z,20.20
2023-05-19T18:54:45.871Z,20.20
2023-05-19T18:57:13.574Z,20.20
2023-05-19T18:59:40.312Z,20.10
2023-05-19T19:02:06.964Z,19.90
2023-05-19T19:04:33.808Z,19.80
2023-05-19T19:07:01.246Z,19.70
2023-05-19T19:09:27.895Z,19.50
2023-05-19T19:11:54.522Z,19.50
2023-05-19T19:14:21.188Z,19.50
2023-05-19T19:16:47.850Z,19.40
2023-05-19T19:19:14.627Z,19.30
2023-05-19T19:21:41.788Z,19.30
2023-05-19T19:24:08.467Z,19.20
2023-05-19T19:26:35.373Z,19.10
2023-05-19T19:29:02.047Z,19.00
2023-05-19T19:31:28.828Z,18.90
2023-05-19T19:33:58.855Z,19.00
2023-05-19T19:36:26.571Z,18.80
2023-05-19T19:38:53.246Z,18.80
2023-05-19T19:41:20.071Z,18.90
2023-05-19T19:43:46.762Z,18.80
2023-05-19T19:46:13.471Z,18.70
2023-05-19T19:48:40.209Z,18.60
2023-05-19T19:51:06.846Z,18.40
2023-05-19T19:53:33.472Z,18.50
2023-05-19T19:56:01.712Z,18.50
2023-05-19T19:58:29.174Z,18.40
2023-05-19T20:00:59.775Z,18.30
2023-05-19T20:03:26.930Z,18.20
2023-05-19T20:05:56.991Z,18.20
2023-05-19T20:08:24.574Z,18.10
2023-05-19T20:10:51.416Z,18.10
2023-05-19T20:13:18.962Z,17.90
2023-05-19T20:15:46.653Z,18.00
2023-05-19T20:18:13.346Z,18.00
2023-05-19T20:20:40.909Z,18.00
2023-05-19T20:23:07.967Z,17.90
2023-05-19T20:25:50.133Z,17.70
2023-05-19T20:28:25.777Z,17.70
2023-05-19T20:30:52.457Z,17.70
2023-05-19T20:33:19.102Z,17.60
2023-05-19T20:35:45.786Z,17.60
2023-05-19T20:38:12.461Z,17.70
2023-05-19T20:40:39.177Z,17.70
2023-05-19T20:43:05.962Z,17.60
2023-05-19T20:45:32.960Z,17.60
2023-05-19T20:48:00.593Z,17.50
2023-05-19T20:50:27.313Z,17.40
2023-05-19T20:52:54.067Z,17.40
2023-05-19T20:55:21.186Z,17.30
2023-05-19T20:57:47.850Z,17.20
2023-05-19T21:00:14.742Z,17.30
2023-05-19T21:02:41.453Z,17.20
2023-05-19T21:05:08.526Z,17.20
2023-05-19T21:07:35.297Z,17.10
2023-05-19T21:10:02.073Z,17.00
2023-05-19T21:12:33.752Z,16.90
2023-05-19T21:15:01.393Z,16.80
2023-05-19T21:17:28.217Z,16.80
2023-05-19T21:19:59.513Z,16.90
2023-05-19T21:22:27.056Z,16.80
2023-05-19T21:24:54.699Z,16.80
2023-05-19T21:27:21.602Z,16.70
2023-05-19T21:29:54.361Z,16.60
2023-05-19T21:32:21.691Z,16.70
2023-05-19T21:34:48.331Z,16.60
2023-05-19T21:37:17.109Z,16.60
2023-05-19T21:39:44.123Z,16.60
2023-05-19T21:42:10.790Z,16.50
2023-05-19T21:44:37.463Z,16.50
2023-05-19T21:47:04.232Z,16.40
2023-05-19T21:49:31.271Z,16.40
2023-05-19T21:51:58.286Z,16.40
2023-05-19T21:54:24.973Z,16.40
2023-05-19T21:56:51.603Z,16.40
2023-05-19T21:59:18.293Z,16.30
2023-05-19T22:01:45.063Z,16.20
2023-05-19T22:04:11.870Z,16.20
2023-05-19T22:06:38.622Z,16.20
2023-05-19T22:09:05.347Z,16.20
2023-05-19T22:11:32.005Z,16.10
2023-05-19T22:13:58.732Z,16.20
2023-05-19T22:16:25.556Z,16.10
2023-05-19T22:18:52.397Z,16.10
2023-05-19T22:21:19.109Z,16.10
2023-05-19T22:23:45.915Z,16.20
2023-05-19T22:26:12.522Z,16.00
2023-05-19T22:28:39.294Z,16.10
2023-05-19T22:31:06.248Z,16.00
2023-05-19T22:33:33.200Z,15.90
2023-05-19T22:35:59.823Z,15.90
2023-05-19T22:38:26.458Z,15.80
2023-05-19T22:40:53.133Z,15.80
2023-05-19T22:43:19.817Z,15.80
2023-05-19T22:45:46.461Z,15.90
2023-05-19T22:48:13.190Z,15.70
2023-05-19T22:50:39.823Z,15.80
2023-05-19T22:53:06.577Z,15.80
2023-05-19T22:55:33.549Z,15.60
2023-05-19T22:58:00.939Z,15.50
2023-05-19T23:00:27.577Z,15.70
2023-05-19T23:02:54.351Z,15.50
2023-05-19T23:05:21.061Z,15.40
2023-05-19T23:07:47.711Z,15.40
2023-05-19T23:10:14.339Z,15.30
2023-05-19T23:12:41.047Z,15.40
2023-05-19T23:15:08.556Z,15.30
2023-05-19T23:17:35.939Z,15.40
2023-05-19T23:20:02.756Z,15.40
2023-05-19T23:22:29.467Z,15.40
2023-05-19T23:24:56.231Z,15.40
2023-05-19T23:27:22.935Z,15.40
2023-05-19T23:29:51.799Z,15.30
2023-05-19T23:32:18.509Z,15.30
2023-05-19T23:34:47.376Z,15.10
2023-05-19T23:37:14.077Z,15.20
2023-05-19T23:39:40.738Z,15.20
2023-05-19T23:42:07.425Z,15.30
2023-05-19T23:44:34.064Z,15.30
2023-05-19T23:47:00.801Z,15.30
2023-05-19T23:49:27.567Z,15.20
2023-05-19T23:51:54.499Z,15.10
2023-05-19T23:54:21.384Z,15.00
2023-05-19T23:56:48.090Z,15.00
2023-05-19T23:59:14.757Z,15.00
